Time;durP1;ratioP1;P1;durP2;ratioP2;P2;SDS_P1;SDS_P2;PMS_P1;PMS_P2;Temp;Humidity;BMP_temperature;BMP_pressure;BME280_temperature;BME280_humidity;BME280_pressure;Samples;Min_cycle;Max_cycle;Signal;HPM_P1;HPM_P2
2022/07/20 00:00:37;;;;;;;3.50;2.70;;;25.40;65.50;;;;;;4856083;29;20041;-77
2022/07/20 00:03:12;;;;;;;5.15;2.67;;;25.30;65.80;;;;;;4875929;29;20048;-75
2022/07/20 00:05:40;;;;;;;3.47;3.05;;;25.20;65.30;;;;;;4875839;29;20045;-76
2022/07/20 00:08:06;;;;;;;4.43;2.95;;;25.20;65.30;;;;;;4875287;29;20076;-77
2022/07/20 00:13:18;;;;;;;5.55;3.63;;;25.00;65.60;;;;;;4869584;29;20109;-76
2022/07/20 00:15:44;;;;;;;5.75;2.60;;;25.00;66.00;;;;;;4868248;29;20041;-78
2022/07/20 00:18:11;;;;;;;4.60;2.95;;;25.00;66.10;;;;;;4857155;29;20040;-77
2022/07/20 00:20:37;;;;;;;6.05;2.88;;;24.90;66.20;;;;;;4856285;29;20530;-77
2022/07/20 00:23:03;;;;;;;4.60;3.00;;;24.80;66.00;;;;;;4861724;29;20049;-77
2022/07/20 00:25:30;;;;;;;5.00;2.80;;;24.80;66.20;;;;;;4862938;29;20045;-77
2022/07/20 00:27:56;;;;;;;4.75;3.10;;;24.80;65.90;;;;;;4864417;29;20050;-76
2022/07/20 00:30:22;;;;;;;4.30;2.90;;;24.70;66.20;;;;;;4839146;29;20045;-77
2022/07/20 00:32:48;;;;;;;6.50;2.83;;;24.60;66.40;;;;;;4862683;29;20052;-77
2022/07/20 00:35:15;;;;;;;6.38;2.80;;;24.60;67.10;;;;;;4862344;29;20046;-77
2022/07/20 00:37:42;;;;;;;4.85;2.95;;;24.60;66.90;;;;;;4870108;29;20077;-77
2022/07/20 00:40:10;;;;;;;6.70;2.92;;;24.50;66.90;;;;;;4874357;29;20045;-76
2022/07/20 00:42:36;;;;;;;3.95;2.88;;;24.50;67.00;;;;;;4863721;29;20118;-77
2022/07/20 00:45:04;;;;;;;5.07;3.35;;;24.40;67.10;;;;;;4851210;29;20475;-77
2022/07/20 00:47:29;;;;;;;4.93;3.10;;;24.40;66.40;;;;;;4868336;29;20053;-76
2022/07/20 00:49:55;;;;;;;6.40;2.92;;;24.30;66.40;;;;;;4856457;29;20056;-78
2022/07/20 00:52:21;;;;;;;3.65;2.60;;;24.30;66.20;;;;;;4851324;29;20097;-77
2022/07/20 00:54:48;;;;;;;7.45;3.30;;;24.20;66.60;;;;;;4856825;29;20129;-77
2022/07/20 00:57:15;;;;;;;3.75;2.67;;;24.20;67.20;;;;;;4844827;29;20049;-77
2022/07/20 00:59:41;;;;;;;4.47;2.80;;;24.20;66.60;;;;;;4865350;29;20045;-77
2022/07/20 01:02:07;;;;;;;5.45;3.35;;;24.10;66.30;;;;;;4844721;29;20145;-77
2022/07/20 01:04:32;;;;;;;10.15;3.47;;;24.10;66.10;;;;;;4868619;29;20052;-77
2022/07/20 01:06:58;;;;;;;5.07;3.13;;;24.10;66.00;;;;;;4854886;29;20048;-77
2022/07/20 01:09:24;;;;;;;9.27;2.95;;;24.00;66.30;;;;;;4863500;29;20049;-77
2022/07/20 01:11:50;;;;;;;6.18;2.42;;;24.00;66.90;;;;;;4874209;29;20041;-77
2022/07/20 01:14:16;;;;;;;4.93;2.97;;;24.00;67.00;;;;;;4866623;29;20528;-77
2022/07/20 01:16:42;;;;;;;5.22;3.20;;;23.90;67.20;;;;;;4854361;29;20047;-77
2022/07/20 01:19:08;;;;;;;7.05;2.97;;;23.90;67.60;;;;;;4861892;29;20049;-77
2022/07/20 01:21:41;;;;;;;6.70;2.97;;;23.80;66.80;;;;;;4863566;29;20444;-77
2022/07/20 01:24:11;;;;;;;7.00;3.00;;;23.80;67.20;;;;;;4877269;29;20041;-77
2022/07/20 01:26:41;;;;;;;5.78;2.80;;;23.80;67.10;;;;;;4867286;29;20060;-76
2022/07/20 01:29:08;;;;;;;4.10;2.95;;;23.80;67.40;;;;;;4859962;29;20135;-77
2022/07/20 01:31:34;;;;;;;3.28;2.80;;;23.70;67.40;;;;;;4876837;29;20037;-77
2022/07/20 01:34:00;;;;;;;5.55;2.53;;;23.70;67.30;;;;;;4856961;29;20451;-78
2022/07/20 01:36:26;;;;;;;4.90;3.30;;;23.60;67.20;;;;;;4877993;29;20398;-77
2022/07/20 01:38:52;;;;;;;4.20;2.80;;;23.60;67.70;;;;;;4863614;29;20045;-77
2022/07/20 01:41:18;;;;;;;4.80;3.03;;;23.60;67.90;;;;;;4854316;29;20383;-77
2022/07/20 01:43:44;;;;;;;4.47;2.60;;;23.50;67.50;;;;;;4860693;29;20040;-77
2022/07/20 01:46:09;;;;;;;7.47;3.10;;;23.50;68.10;;;;;;4847498;29;20049;-78
2022/07/20 01:48:35;;;;;;;4.07;2.50;;;23.50;68.30;;;;;;4861577;29;20101;-77
2022/07/20 01:51:01;;;;;;;4.80;2.95;;;23.40;68.50;;;;;;4847680;29;20044;-77
2022/07/20 01:53:27;;;;;;;4.70;2.70;;;23.40;68.80;;;;;;4846744;29;20048;-77
2022/07/20 01:55:53;;;;;;;5.03;2.88;;;23.40;68.70;;;;;;4846064;29;20044;-77
2022/07/20 01:58:19;;;;;;;5.38;2.67;;;23.30;68.20;;;;;;4861054;29;20132;-77
2022/07/20 02:00:45;;;;;;;4.60;3.08;;;23.30;68.20;;;;;;4863999;29;20124;-78
2022/07/20 02:03:11;;;;;;;4.93;2.90;;;23.30;68.20;;;;;;4863401;29;20044;-77
2022/07/20 02:05:36;;;;;;;4.93;3.05;;;23.30;68.60;;;;;;4856998;29;20053;-76
2022/07/20 02:08:02;;;;;;;7.60;3.10;;;23.20;68.50;;;;;;4842730;29;20495;-76
2022/07/20 02:10:28;;;;;;;7.90;4.43;;;23.20;69.00;;;;;;4873005;29;20038;-77
2022/07/20 02:12:54;;;;;;;4.47;2.97;;;23.20;69.70;;;;;;4844392;29;20398;-76
2022/07/20 02:18:05;;;;;;;5.35;2.78;;;23.10;69.30;;;;;;4861300;29;20046;-77
2022/07/20 02:20:31;;;;;;;4.35;3.05;;;23.10;69.40;;;;;;4862858;29;20037;-77
2022/07/20 02:22:57;;;;;;;3.97;3.35;;;23.00;69.30;;;;;;4859393;29;20414;-76
2022/07/20 02:25:22;;;;;;;4.38;2.85;;;23.00;69.60;;;;;;4864008;29;20408;-77
2022/07/20 02:27:48;;;;;;;4.28;3.05;;;22.90;69.80;;;;;;4861652;29;20080;-77
2022/07/20 02:30:14;;;;;;;8.65;3.00;;;22.90;69.60;;;;;;4861232;29;20045;-78
2022/07/20 02:32:40;;;;;;;3.40;2.65;;;22.90;70.10;;;;;;4854191;29;20037;-77
2022/07/20 02:35:06;;;;;;;5.53;3.30;;;22.80;70.30;;;;;;4860342;29;20116;-77
2022/07/20 02:37:32;;;;;;;5.22;3.20;;;22.80;70.60;;;;;;4863216;29;20041;-77
2022/07/20 02:39:57;;;;;;;6.55;3.20;;;22.80;70.40;;;;;;4847549;29;20454;-76
2022/07/20 02:42:23;;;;;;;4.80;3.30;;;22.70;70.00;;;;;;4867150;29;20037;-77
2022/07/20 02:44:49;;;;;;;4.22;3.28;;;22.70;69.90;;;;;;4862527;29;20052;-75
2022/07/20 02:47:14;;;;;;;5.97;3.30;;;22.60;70.00;;;;;;4852793;29;20071;-77
2022/07/20 02:49:40;;;;;;;7.82;3.50;;;22.60;69.90;;;;;;4853215;29;20181;-76
2022/07/20 02:52:06;;;;;;;4.43;3.35;;;22.60;70.80;;;;;;4867793;29;20045;-78
2022/07/20 02:54:31;;;;;;;6.68;3.20;;;22.50;71.10;;;;;;4862370;29;20040;-77
2022/07/20 02:56:57;;;;;;;6.88;3.40;;;22.50;70.90;;;;;;4852543;29;20053;-77
2022/07/20 02:59:23;;;;;;;7.15;3.28;;;22.50;70.80;;;;;;4861694;29;20038;-77
2022/07/20 03:01:48;;;;;;;5.38;3.58;;;22.50;70.80;;;;;;4850534;29;20052;-77
2022/07/20 03:04:14;;;;;;;3.83;3.05;;;22.40;70.40;;;;;;4843055;29;20200;-77
2022/07/20 03:06:40;;;;;;;5.80;3.15;;;22.40;70.40;;;;;;4830331;29;20047;-76
2022/07/20 03:09:05;;;;;;;6.45;4.00;;;22.30;70.20;;;;;;4861218;29;20041;-79
2022/07/20 03:11:31;;;;;;;4.63;3.10;;;22.30;70.00;;;;;;4861247;29;20071;-77
2022/07/20 03:13:57;;;;;;;5.00;3.22;;;22.20;70.10;;;;;;4855992;29;20140;-77
2022/07/20 03:16:22;;;;;;;6.65;3.60;;;22.20;70.50;;;;;;4858248;29;20045;-76
2022/07/20 03:18:48;;;;;;;6.22;3.53;;;22.20;70.60;;;;;;4854444;29;20038;-77
2022/07/20 03:21:14;;;;;;;6.88;3.55;;;22.20;70.50;;;;;;4841321;29;20045;-77
2022/07/20 03:23:39;;;;;;;6.05;3.60;;;22.20;71.20;;;;;;4851582;29;20083;-77
2022/07/20 03:26:05;;;;;;;4.93;3.35;;;22.10;71.70;;;;;;4842355;29;20076;-77
2022/07/20 03:28:31;;;;;;;6.32;3.80;;;22.10;71.70;;;;;;4831183;29;20049;-77
2022/07/20 03:30:57;;;;;;;6.57;4.22;;;22.10;71.50;;;;;;4852062;29;20573;-77
2022/07/20 03:33:22;;;;;;;5.45;3.20;;;22.10;71.50;;;;;;4850530;29;20041;-77
2022/07/20 03:35:48;;;;;;;5.88;3.70;;;22.10;71.60;;;;;;4845866;29;20041;-76
2022/07/20 03:38:13;;;;;;;5.50;3.65;;;22.00;71.20;;;;;;4852590;29;20044;-77
2022/07/20 03:40:39;;;;;;;5.15;3.05;;;22.00;71.10;;;;;;4851806;29;20053;-77
2022/07/20 03:43:05;;;;;;;8.52;3.58;;;22.00;70.90;;;;;;4840234;29;20204;-76
2022/07/20 03:45:31;;;;;;;6.28;3.33;;;22.00;71.40;;;;;;4858344;29;20049;-78
2022/07/20 03:47:56;;;;;;;6.85;3.50;;;21.90;70.70;;;;;;4862766;29;20061;-78
2022/07/20 03:50:22;;;;;;;8.48;3.63;;;21.90;70.70;;;;;;4845552;29;20081;-77
2022/07/20 03:52:48;;;;;;;7.43;3.65;;;21.90;70.60;;;;;;4873700;29;20037;-76
2022/07/20 03:55:14;;;;;;;5.30;3.67;;;21.90;70.60;;;;;;4866900;29;20566;-77
2022/07/20 03:57:40;;;;;;;18.45;4.25;;;21.80;70.70;;;;;;4868510;29;20474;-76
2022/07/20 04:00:06;;;;;;;5.03;3.40;;;21.80;70.80;;;;;;4840871;29;20442;-77
2022/07/20 04:02:32;;;;;;;5.05;3.50;;;21.80;71.40;;;;;;4868794;29;20057;-76
2022/07/20 04:04:57;;;;;;;5.82;3.33;;;21.80;71.40;;;;;;4864504;29;20074;-76
2022/07/20 04:07:23;;;;;;;5.50;3.55;;;21.70;71.10;;;;;;4854340;29;20046;-78
2022/07/20 04:09:48;;;;;;;5.20;3.33;;;21.70;71.00;;;;;;4855576;29;20457;-77
2022/07/20 04:12:21;;;;;;;6.78;3.55;;;21.70;71.10;;;;;;4853701;29;20130;-78
2022/07/20 04:14:49;;;;;;;5.28;3.38;;;21.70;71.50;;;;;;4869171;29;20049;-77
2022/07/20 04:17:15;;;;;;;7.78;3.75;;;21.70;71.10;;;;;;4876690;29;20041;-79
2022/07/20 04:19:41;;;;;;;6.50;3.38;;;21.70;70.80;;;;;;4864373;29;20046;-77
2022/07/20 04:22:07;;;;;;;5.38;3.40;;;21.70;70.50;;;;;;4868816;29;20045;-77
2022/07/20 04:24:33;;;;;;;4.70;3.70;;;21.70;70.90;;;;;;4874299;29;20046;-78
2022/07/20 04:26:59;;;;;;;5.53;3.53;;;21.70;71.00;;;;;;4852104;29;20042;-77
2022/07/20 04:29:25;;;;;;;7.35;3.63;;;21.70;71.70;;;;;;4867787;29;20107;-76
2022/07/20 04:31:51;;;;;;;4.82;3.13;;;21.70;71.60;;;;;;4852436;29;20553;-76
2022/07/20 04:34:17;;;;;;;5.93;3.25;;;21.80;71.60;;;;;;4862076;29;20049;-79
2022/07/20 04:36:42;;;;;;;5.03;3.63;;;21.80;71.80;;;;;;4863065;29;20088;-76
2022/07/20 04:39:08;;;;;;;6.97;3.58;;;21.70;71.80;;;;;;4838896;29;20366;-77
2022/07/20 04:41:34;;;;;;;6.20;3.60;;;21.80;71.70;;;;;;4857280;29;20054;-77
2022/07/20 04:43:59;;;;;;;4.88;3.50;;;21.70;72.20;;;;;;4865277;29;20037;-78
2022/07/20 04:46:25;;;;;;;4.70;2.90;;;21.70;72.60;;;;;;4858496;29;20041;-77
2022/07/20 04:48:51;;;;;;;8.07;3.70;;;21.80;72.60;;;;;;4873471;29;20057;-76
2022/07/20 04:51:17;;;;;;;5.35;3.50;;;21.80;73.20;;;;;;4850813;29;20053;-77
2022/07/20 04:53:43;;;;;;;5.45;3.40;;;21.80;73.10;;;;;;4840475;29;20045;-77
2022/07/20 04:56:09;;;;;;;6.80;3.90;;;21.80;73.50;;;;;;4854131;29;20084;-77
2022/07/20 04:58:36;;;;;;;7.18;3.80;;;21.80;73.10;;;;;;4865797;29;20037;-77
2022/07/20 05:01:01;;;;;;;5.50;3.17;;;21.80;73.10;;;;;;4861963;29;20041;-77
2022/07/20 05:03:27;;;;;;;4.75;3.50;;;21.80;73.60;;;;;;4838393;29;20486;-77
2022/07/20 05:05:53;;;;;;;7.93;3.67;;;21.80;74.50;;;;;;4860355;29;20546;-76
2022/07/20 05:08:19;;;;;;;5.25;3.58;;;21.80;74.30;;;;;;4839520;29;20045;-76
2022/07/20 05:10:45;;;;;;;6.15;3.88;;;21.80;74.10;;;;;;4854425;29;20053;-77
2022/07/20 05:13:10;;;;;;;5.07;3.47;;;21.80;74.10;;;;;;4869735;29;20600;-77
2022/07/20 05:15:36;;;;;;;5.22;3.45;;;21.80;74.20;;;;;;4870273;29;20131;-77
2022/07/20 05:18:02;;;;;;;5.97;3.92;;;21.80;74.20;;;;;;4854494;29;20036;-77
2022/07/20 05:20:27;;;;;;;6.47;3.38;;;21.90;73.90;;;;;;4864359;29;20080;-76
2022/07/20 05:22:53;;;;;;;11.88;4.07;;;21.80;74.30;;;;;;4860783;29;20504;-76
2022/07/20 05:25:19;;;;;;;5.82;3.70;;;21.90;74.40;;;;;;4857548;29;20060;-77
2022/07/20 05:27:45;;;;;;;7.07;3.55;;;21.90;74.10;;;;;;4846693;29;20050;-78
2022/07/20 05:30:11;;;;;;;5.07;3.65;;;22.00;74.00;;;;;;4860820;29;20045;-77
2022/07/20 05:32:37;;;;;;;6.13;3.90;;;22.00;74.30;;;;;;4853995;29;20471;-77
2022/07/20 05:35:03;;;;;;;3.95;3.15;;;22.00;75.00;;;;;;4860814;29;20076;-77
2022/07/20 05:37:29;;;;;;;5.47;3.65;;;22.00;75.70;;;;;;4856041;29;20041;-78
2022/07/20 05:39:55;;;;;;;8.25;4.18;;;22.10;74.80;;;;;;4861252;29;20041;-76
2022/07/20 05:42:21;;;;;;;5.82;4.10;;;22.10;74.50;;;;;;4872076;29;20053;-77
2022/07/20 05:44:46;;;;;;;5.10;3.63;;;22.20;74.20;;;;;;4860694;29;20060;-77
2022/07/20 05:47:12;;;;;;;6.65;4.10;;;22.20;74.00;;;;;;4861957;29;20639;-76
2022/07/20 05:49:38;;;;;;;5.85;3.90;;;22.30;74.00;;;;;;4866067;29;20050;-77
2022/07/20 05:52:04;;;;;;;5.40;3.78;;;22.40;73.60;;;;;;4873449;29;20043;-76
2022/07/20 05:54:30;;;;;;;7.72;4.05;;;22.40;73.60;;;;;;4843690;29;20033;-78
2022/07/20 05:56:56;;;;;;;9.88;5.25;;;22.50;73.50;;;;;;4869899;29;20056;-77
2022/07/20 05:59:22;;;;;;;9.40;3.95;;;22.60;73.20;;;;;;4861611;29;20041;-76
2022/07/20 06:01:48;;;;;;;5.70;3.92;;;22.70;73.00;;;;;;4854757;29;20038;-77
2022/07/20 06:04:14;;;;;;;7.40;4.32;;;22.80;72.90;;;;;;4871739;29;20037;-78
2022/07/20 06:06:40;;;;;;;6.97;4.45;;;22.90;72.60;;;;;;4854983;29;20607;-79
2022/07/20 06:09:07;;;;;;;9.50;4.68;;;23.00;73.20;;;;;;4841241;29;20041;-75
2022/07/20 06:11:34;;;;;;;7.45;4.90;;;23.10;72.50;;;;;;4862010;29;20056;-76
2022/07/20 06:14:00;;;;;;;8.30;5.13;;;23.20;72.50;;;;;;4859456;29;20041;-76
2022/07/20 06:16:26;;;;;;;16.40;4.65;;;23.20;72.40;;;;;;4858456;29;20093;-76
2022/07/20 06:18:51;;;;;;;6.22;4.80;;;23.40;72.30;;;;;;4868081;29;20102;-77
2022/07/20 06:21:17;;;;;;;6.65;4.40;;;23.40;72.10;;;;;;4853743;29;20045;-77
2022/07/20 06:23:43;;;;;;;7.63;5.07;;;23.60;72.00;;;;;;4857294;29;20482;-78
2022/07/20 06:26:08;;;;;;;8.23;4.90;;;23.60;71.90;;;;;;4852783;29;20045;-76
2022/07/20 06:28:35;;;;;;;13.07;5.57;;;23.70;71.70;;;;;;4866659;29;20096;-77
2022/07/20 06:31:00;;;;;;;8.65;4.80;;;23.80;72.30;;;;;;4863691;29;20517;-78
2022/07/20 06:33:26;;;;;;;7.88;5.30;;;23.90;72.40;;;;;;4866907;29;20125;-77
2022/07/20 06:35:52;;;;;;;8.05;4.97;;;24.00;72.40;;;;;;4855431;29;20118;-75
2022/07/20 06:38:18;;;;;;;10.75;5.82;;;24.10;72.40;;;;;;4845265;29;20048;-75
2022/07/20 06:40:44;;;;;;;9.88;6.38;;;24.20;72.40;;;;;;4865368;29;20052;-76
2022/07/20 06:43:09;;;;;;;12.05;6.03;;;24.30;72.40;;;;;;4874977;29;20455;-77
2022/07/20 06:45:35;;;;;;;10.73;6.40;;;24.50;72.50;;;;;;4858777;29;20057;-78
2022/07/20 06:48:01;;;;;;;13.20;7.00;;;24.60;72.70;;;;;;4864847;29;20052;-76
2022/07/20 06:50:27;;;;;;;10.88;7.40;;;24.80;73.00;;;;;;4856679;29;20053;-77
2022/07/20 06:52:52;;;;;;;36.35;7.53;;;24.90;72.90;;;;;;4858421;29;20045;-77
2022/07/20 06:55:18;;;;;;;13.75;8.38;;;25.20;73.30;;;;;;4855986;29;20069;-76
2022/07/20 06:57:44;;;;;;;14.98;8.70;;;25.30;73.60;;;;;;4866404;29;20042;-76
2022/07/20 07:00:11;;;;;;;14.63;9.60;;;25.50;73.40;;;;;;4856550;29;20402;-77
2022/07/20 07:02:37;;;;;;;14.40;8.57;;;25.70;73.70;;;;;;4841313;29;20045;-79
2022/07/20 07:05:03;;;;;;;16.65;9.98;;;25.90;73.70;;;;;;4845934;29;20124;-77
2022/07/20 07:07:29;;;;;;;14.68;10.45;;;26.10;73.50;;;;;;4859782;29;20053;-78
2022/07/20 07:09:55;;;;;;;15.02;9.55;;;26.20;73.20;;;;;;4852238;29;20052;-79
2022/07/20 07:12:21;;;;;;;16.10;9.57;;;26.30;73.90;;;;;;4850646;29;20490;-77
2022/07/20 07:14:46;;;;;;;15.77;10.30;;;26.40;73.30;;;;;;4839849;29;20045;-77
2022/07/20 07:17:12;;;;;;;16.98;11.30;;;26.50;73.50;;;;;;4839437;29;20504;-77
2022/07/20 07:19:41;;;;;;;19.83;11.35;;;26.60;73.70;;;;;;4866626;29;20053;-78
2022/07/20 07:22:08;;;;;;;21.38;12.95;;;26.70;74.60;;;;;;4858063;29;20048;-78
2022/07/20 07:24:34;;;;;;;25.00;15.45;;;26.80;75.00;;;;;;4859648;29;20045;-77
2022/07/20 07:26:59;;;;;;;26.83;15.05;;;26.80;75.40;;;;;;4861049;29;20561;-77
2022/07/20 07:29:26;;;;;;;31.40;15.90;;;27.00;75.50;;;;;;4858257;29;20046;-76
2022/07/20 07:31:58;;;;;;;25.50;16.52;;;27.20;75.70;;;;;;4858881;29;20041;-77
2022/07/20 07:34:28;;;;;;;24.40;15.48;;;27.50;75.50;;;;;;4873869;29;20405;-77
2022/07/20 07:36:55;;;;;;;24.17;15.73;;;27.60;75.30;;;;;;4885890;29;20101;-77
2022/07/20 07:39:22;;;;;;;28.67;15.70;;;27.80;75.20;;;;;;4867270;29;20106;-76
2022/07/20 07:41:48;;;;;;;22.58;15.73;;;27.80;75.30;;;;;;4874377;29;20037;-77
2022/07/20 07:44:13;;;;;;;22.05;16.25;;;27.90;75.30;;;;;;4870928;29;20088;-78
2022/07/20 07:46:39;;;;;;;30.45;16.65;;;28.00;75.40;;;;;;4840911;29;20097;-75
2022/07/20 07:49:05;;;;;;;22.90;16.20;;;28.10;75.60;;;;;;4837431;29;20044;-76
2022/07/20 07:51:31;;;;;;;29.00;17.80;;;28.20;75.60;;;;;;4858708;29;20049;-76
2022/07/20 07:53:58;;;;;;;26.48;16.33;;;28.30;75.70;;;;;;4866973;29;20136;-77
2022/07/20 07:56:24;;;;;;;27.45;16.65;;;28.50;75.70;;;;;;4857559;29;20048;-75
2022/07/20 07:58:50;;;;;;;25.88;17.70;;;28.50;75.80;;;;;;4870737;29;20040;-77
2022/07/20 08:01:16;;;;;;;24.83;17.65;;;28.60;76.40;;;;;;4862141;29;20057;-76
2022/07/20 08:03:42;;;;;;;26.70;18.38;;;28.80;75.70;;;;;;4882166;29;20049;-78
2022/07/20 08:06:07;;;;;;;28.42;19.77;;;28.80;76.00;;;;;;4878385;29;20049;-78
2022/07/20 08:08:33;;;;;;;29.17;18.90;;;29.00;75.90;;;;;;4863130;29;20132;-76
2022/07/20 08:10:59;;;;;;;28.05;19.35;;;29.10;75.70;;;;;;4881866;29;20557;-77
2022/07/20 08:13:26;;;;;;;29.73;18.60;;;29.20;75.70;;;;;;4867521;29;20077;-78
2022/07/20 08:15:51;;;;;;;31.65;20.52;;;29.20;75.40;;;;;;4868580;29;20328;-77
2022/07/20 08:18:17;;;;;;;27.35;19.73;;;29.30;75.30;;;;;;4875533;29;20056;-78
2022/07/20 08:20:43;;;;;;;35.25;21.13;;;29.40;75.20;;;;;;4871411;29;20406;-77
2022/07/20 08:23:08;;;;;;;30.95;21.77;;;29.50;75.30;;;;;;4848366;29;20078;-77
2022/07/20 08:25:34;;;;;;;30.27;21.35;;;29.40;74.40;;;;;;4860690;29;20049;-78
2022/07/20 08:28:21;;;;;;;30.23;22.50;;;29.30;73.90;;;;;;4871331;29;20045;-78
2022/07/20 08:30:50;;;;;;;32.33;21.42;;;29.30;73.70;;;;;;4865504;29;20147;-79
2022/07/20 08:33:17;;;;;;;29.10;21.25;;;29.30;73.70;;;;;;4868942;29;20505;-78
2022/07/20 08:35:43;;;;;;;31.50;21.33;;;29.30;73.50;;;;;;4865293;29;20088;-78
2022/07/20 08:38:10;;;;;;;28.27;21.30;;;29.30;73.40;;;;;;4867172;29;20045;-77
2022/07/20 08:40:38;;;;;;;28.55;22.38;;;29.20;72.40;;;;;;4877955;29;20052;-78
2022/07/20 08:43:04;;;;;;;35.70;22.90;;;29.10;72.40;;;;;;4869094;29;20127;-79
2022/07/20 08:45:31;;;;;;;47.55;23.65;;;29.00;72.40;;;;;;4838115;29;20124;-76
2022/07/20 08:48:00;;;;;;;36.42;22.05;;;29.10;72.90;;;;;;4871226;29;20136;-78
2022/07/20 08:50:29;;;;;;;28.88;21.73;;;29.20;72.00;;;;;;4866046;29;20157;-78
2022/07/20 08:52:56;;;;;;;29.83;21.17;;;29.20;71.50;;;;;;4850146;29;20054;-78
2022/07/20 08:55:23;;;;;;;28.73;21.92;;;29.10;71.50;;;;;;4868049;29;20041;-77
2022/07/20 08:57:49;;;;;;;28.75;20.40;;;29.20;71.40;;;;;;4858048;29;20177;-78
2022/07/20 09:00:16;;;;;;;28.83;20.40;;;29.30;71.70;;;;;;4865725;29;20132;-78
2022/07/20 09:02:47;;;;;;;32.30;20.42;;;29.50;71.90;;;;;;4868903;29;20045;-78
2022/07/20 09:05:13;;;;;;;30.08;19.30;;;29.60;70.90;;;;;;4878848;29;20113;-77
2022/07/20 09:07:39;;;;;;;26.58;19.98;;;29.60;70.50;;;;;;4852729;29;20530;-77
2022/07/20 09:10:08;;;;;;;37.17;19.42;;;29.50;69.80;;;;;;4863282;29;20049;-78
2022/07/20 09:12:54;;;;;;;22.90;18.55;;;29.50;69.60;;;;;;4852865;29;20049;-78
2022/07/20 09:15:35;;;;;;;29.75;18.10;;;29.50;68.90;;;;;;4867706;29;20054;-76
2022/07/20 09:18:14;;;;;;;34.72;18.17;;;29.60;69.40;;;;;;4872002;29;20504;-78
2022/07/20 09:20:44;;;;;;;42.65;16.27;;;29.60;70.00;;;;;;4868037;29;20050;-78
2022/07/20 09:23:19;;;;;;;24.90;15.95;;;29.70;70.60;;;;;;4870089;29;20451;-78
2022/07/20 09:26:11;;;;;;;23.10;15.63;;;29.70;70.30;;;;;;4862490;29;20037;-78
2022/07/20 09:28:52;;;;;;;24.02;15.20;;;29.70;71.00;;;;;;4849943;29;20130;-78
2022/07/20 09:31:21;;;;;;;22.15;13.60;;;29.80;70.10;;;;;;4867876;29;20037;-78
2022/07/20 09:33:59;;;;;;;18.08;13.02;;;29.90;69.30;;;;;;4871294;29;20093;-77
2022/07/20 09:36:36;;;;;;;21.50;11.85;;;30.00;68.10;;;;;;4877919;29;20048;-78
2022/07/20 09:39:13;;;;;;;16.48;11.20;;;30.00;67.60;;;;;;4868199;29;20045;-78
2022/07/20 09:41:41;;;;;;;17.88;11.13;;;30.20;67.10;;;;;;4872503;29;20045;-77
2022/07/20 09:44:10;;;;;;;19.67;10.63;;;30.30;67.60;;;;;;4861050;29;20232;-77
2022/07/20 09:46:38;;;;;;;15.73;10.65;;;30.20;67.30;;;;;;4864206;29;20052;-77
2022/07/20 09:49:09;;;;;;;14.70;10.38;;;30.20;66.90;;;;;;4834087;29;20061;-78
2022/07/20 09:51:40;;;;;;;21.58;10.05;;;30.20;66.50;;;;;;4867814;29;20041;-78
2022/07/20 09:54:12;;;;;;;46.80;11.52;;;30.20;66.70;;;;;;4873592;29;20049;-77
2022/07/20 09:56:44;;;;;;;18.98;10.35;;;30.20;66.70;;;;;;4868772;29;20060;-77
2022/07/20 09:59:11;;;;;;;15.48;10.23;;;30.10;66.30;;;;;;4875237;29;20044;-77
2022/07/20 10:01:40;;;;;;;17.92;9.45;;;30.10;66.50;;;;;;4862335;29;20059;-78
2022/07/20 10:04:08;;;;;;;15.18;10.30;;;30.00;67.10;;;;;;4863078;29;20486;-78
2022/07/20 10:06:36;;;;;;;16.40;10.73;;;30.00;66.70;;;;;;4878278;29;20057;-78
2022/07/20 10:09:04;;;;;;;20.45;10.35;;;30.00;67.20;;;;;;4871227;29;20053;-78
2022/07/20 10:11:31;;;;;;;21.10;10.55;;;29.90;67.00;;;;;;4864470;29;20141;-78
2022/07/20 10:13:59;;;;;;;34.00;11.13;;;29.90;67.00;;;;;;4890302;29;20052;-77
2022/07/20 10:16:50;;;;;;;19.23;10.82;;;29.90;66.70;;;;;;4874515;29;20041;-78
2022/07/20 10:19:16;;;;;;;22.73;10.60;;;29.80;67.00;;;;;;4865545;29;20064;-79
2022/07/20 10:21:42;;;;;;;24.83;11.00;;;29.80;67.20;;;;;;4862577;29;20041;-77
2022/07/20 10:24:29;;;;;;;16.63;10.10;;;29.80;66.70;;;;;;4867268;29;20048;-77
2022/07/20 10:27:08;;;;;;;19.98;10.48;;;29.70;65.90;;;;;;4874487;29;20059;-76
2022/07/20 10:29:43;;;;;;;24.80;10.68;;;29.60;66.20;;;;;;4873962;29;20073;-76
2022/07/20 10:32:22;;;;;;;13.80;9.80;;;29.40;66.10;;;;;;4867469;29;20044;-78
2022/07/20 10:34:54;;;;;;;15.75;9.68;;;29.30;65.90;;;;;;4872667;29;20049;-78
2022/07/20 10:37:25;;;;;;;16.02;10.07;;;29.10;66.40;;;;;;4871235;29;20053;-77
2022/07/20 10:39:52;;;;;;;13.35;9.80;;;29.00;67.30;;;;;;4863948;29;20053;-78
2022/07/20 10:42:30;;;;;;;11.80;9.63;;;29.00;67.30;;;;;;4859596;29;20076;-78
2022/07/20 10:47:46;;;;;;;15.27;9.23;;;28.90;68.10;;;;;;4874389;29;20061;-77
2022/07/20 10:50:32;;;;;;;12.82;9.55;;;28.80;68.20;;;;;;4869420;29;20053;-77
2022/07/20 10:53:08;;;;;;;13.45;10.02;;;28.90;68.70;;;;;;4887699;29;20037;-77
2022/07/20 10:55:34;;;;;;;15.10;9.77;;;28.80;68.70;;;;;;4863195;29;20513;-77
2022/07/20 10:58:08;;;;;;;23.67;9.85;;;28.80;68.60;;;;;;4876772;29;20068;-77
2022/07/20 11:00:37;;;;;;;22.77;9.52;;;28.70;68.40;;;;;;4889358;29;20044;-77
2022/07/20 11:03:10;;;;;;;18.02;8.55;;;28.80;68.40;;;;;;4864433;29;20512;-76
2022/07/20 11:05:36;;;;;;;15.77;8.75;;;28.70;68.50;;;;;;4858416;29;20041;-78
2022/07/20 11:08:09;;;;;;;14.57;8.65;;;28.70;67.60;;;;;;4863655;29;20403;-77
2022/07/20 11:10:36;;;;;;;13.82;8.13;;;28.70;67.80;;;;;;4861703;29;20056;-77
2022/07/20 11:13:20;;;;;;;15.70;8.65;;;28.70;67.70;;;;;;4877803;29;20116;-78
2022/07/20 11:15:47;;;;;;;13.88;8.52;;;28.80;66.80;;;;;;4853600;29;20053;-77
2022/07/20 11:18:22;;;;;;;13.50;8.80;;;28.80;67.00;;;;;;4864188;29;20189;-77
2022/07/20 11:20:52;;;;;;;14.18;9.05;;;28.80;66.50;;;;;;4865256;29;20048;-78
2022/07/20 11:23:20;;;;;;;12.50;8.93;;;28.80;66.80;;;;;;4869096;29;20060;-77
2022/07/20 11:25:51;;;;;;;12.15;8.55;;;28.90;66.80;;;;;;4876696;29;20170;-77
2022/07/20 11:28:26;;;;;;;12.43;8.95;;;28.90;67.20;;;;;;4878076;29;20064;-78
2022/07/20 11:30:53;;;;;;;13.40;8.93;;;29.00;67.10;;;;;;4872144;29;20041;-77
2022/07/20 11:33:24;;;;;;;16.27;9.18;;;29.00;67.00;;;;;;4848993;29;20053;-78
2022/07/20 11:35:50;;;;;;;10.57;9.00;;;29.10;67.10;;;;;;4888344;29;20060;-78
2022/07/20 11:38:17;;;;;;;12.88;8.73;;;29.20;67.20;;;;;;4876778;29;20049;-77
2022/07/20 11:40:58;;;;;;;14.77;9.48;;;29.20;66.60;;;;;;4877813;29;20085;-77
2022/07/20 11:43:24;;;;;;;18.02;9.68;;;29.30;66.80;;;;;;4867896;29;20061;-76
2022/07/20 11:45:50;;;;;;;16.88;10.10;;;29.30;66.70;;;;;;4865136;29;20048;-78
2022/07/20 11:48:26;;;;;;;16.70;10.40;;;29.40;66.90;;;;;;4868280;29;20065;-78
2022/07/20 11:50:52;;;;;;;14.77;11.07;;;29.50;66.30;;;;;;4867722;29;20048;-78
2022/07/20 11:53:25;;;;;;;24.33;10.93;;;29.60;66.60;;;;;;4878646;29;20045;-78
2022/07/20 11:55:50;;;;;;;15.35;10.65;;;29.70;65.10;;;;;;4852999;29;20033;-78
2022/07/20 11:58:37;;;;;;;13.70;9.98;;;29.70;65.20;;;;;;4874845;29;20481;-77
2022/07/20 12:01:06;;;;;;;14.18;10.07;;;29.80;64.80;;;;;;4863591;29;20112;-77
2022/07/20 12:03:35;;;;;;;14.30;9.93;;;29.80;64.50;;;;;;4875907;29;20121;-78
2022/07/20 12:06:09;;;;;;;13.00;8.88;;;29.80;65.30;;;;;;4876006;29;20041;-78
2022/07/20 12:08:36;;;;;;;10.90;8.43;;;29.90;64.40;;;;;;4871192;29;20052;-78
2022/07/20 12:11:03;;;;;;;12.38;8.55;;;29.90;65.00;;;;;;4851590;29;20344;-77
2022/07/20 12:13:29;;;;;;;9.88;8.10;;;30.00;64.40;;;;;;4860830;29;20045;-77
2022/07/20 12:16:01;;;;;;;14.98;8.38;;;30.00;64.30;;;;;;4855179;29;21763;-77
2022/07/20 12:18:40;;;;;;;15.75;7.53;;;30.00;64.20;;;;;;4876113;29;20109;-79
2022/07/20 12:21:09;;;;;;;13.75;7.55;;;30.00;63.50;;;;;;4872084;29;20045;-79
2022/07/20 12:23:35;;;;;;;11.27;7.38;;;30.10;63.70;;;;;;4851842;29;20048;-78
2022/07/20 12:26:02;;;;;;;24.20;7.35;;;30.20;63.60;;;;;;4854188;29;20105;-77
2022/07/20 12:28:30;;;;;;;30.42;7.95;;;30.30;64.00;;;;;;4866801;29;20509;-77
2022/07/20 12:31:20;;;;;;;35.35;8.82;;;30.40;64.00;;;;;;4867343;29;20049;-76
2022/07/20 12:34:01;;;;;;;9.85;6.43;;;30.50;63.30;;;;;;4856034;29;20044;-77
2022/07/20 12:36:41;;;;;;;10.82;5.70;;;30.60;63.00;;;;;;4854265;29;20041;-79
2022/07/20 12:39:13;;;;;;;34.80;7.38;;;30.80;63.00;;;;;;4872958;29;20041;-76
2022/07/20 12:41:40;;;;;;;16.85;6.40;;;30.90;63.30;;;;;;4871336;29;20112;-77
2022/07/20 12:44:24;;;;;;;22.13;6.75;;;31.00;63.10;;;;;;4863039;29;20049;-78
2022/07/20 12:46:52;;;;;;;10.07;6.25;;;31.30;62.70;;;;;;4892638;29;20125;-78
2022/07/20 12:49:24;;;;;;;12.95;5.57;;;31.60;63.40;;;;;;4851756;29;20405;-77